createdAt,value
2024-01-26T00:02:06.302Z,33.15
2024-01-26T00:07:08.810Z,26.40
2024-01-26T00:12:11.329Z,29.85
2024-01-26T00:17:13.608Z,33.47
2024-01-26T00:22:15.791Z,30.73
2024-01-26T00:27:18.198Z,31.15
2024-01-26T00:32:20.469Z,32.17
2024-01-26T00:37:22.747Z,33.35
2024-01-26T00:42:25.026Z,38.38
2024-01-26T00:47:27.392Z,34.53
2024-01-26T00:52:29.680Z,36.53
2024-01-26T00:57:32.181Z,33.13
2024-01-26T01:02:35.470Z,32.05
2024-01-26T01:07:37.711Z,30.05
2024-01-26T01:12:40.867Z,28.35
2024-01-26T01:17:44.546Z,29.27
2024-01-26T01:22:46.833Z,31.20
2024-01-26T01:27:49.689Z,32.63
2024-01-26T01:32:52.207Z,33.47
2024-01-26T01:37:54.489Z,31.88
2024-01-26T01:42:56.736Z,33.30
2024-01-26T01:47:59.101Z,32.25
2024-01-26T01:53:06.116Z,29.25
2024-01-26T01:58:08.604Z,34.00
2024-01-26T02:03:11.158Z,33.67
2024-01-26T02:08:13.645Z,35.20
2024-01-26T02:13:15.971Z,33.15
2024-01-26T02:18:18.425Z,34.17
2024-01-26T02:23:24.863Z,33.65
2024-01-26T02:28:27.242Z,35.10
2024-01-26T02:33:29.601Z,33.88
2024-01-26T02:38:31.961Z,35.05
2024-01-26T02:43:34.300Z,37.28
2024-01-26T02:48:36.657Z,41.08
2024-01-26T02:53:42.959Z,37.45
2024-01-26T02:58:45.323Z,37.80
2024-01-26T03:03:47.614Z,37.20
2024-01-26T03:08:49.939Z,32.15
2024-01-26T03:13:53.195Z,38.63
2024-01-26T03:18:55.737Z,37.25
2024-01-26T03:23:58.194Z,41.00
2024-01-26T03:29:00.510Z,38.28
2024-01-26T03:34:03.188Z,38.10
2024-01-26T03:39:05.689Z,34.30
2024-01-26T03:44:08.462Z,38.25
2024-01-26T03:49:10.924Z,38.95
2024-01-26T03:54:13.353Z,42.92
2024-01-26T03:59:15.664Z,41.90
2024-01-26T04:04:18.114Z,41.05
2024-01-26T04:09:20.428Z,44.13
2024-01-26T04:14:22.795Z,42.22
2024-01-26T04:19:25.113Z,47.28
2024-01-26T04:24:27.708Z,46.30
2024-01-26T04:29:30.253Z,44.53
2024-01-26T04:34:32.776Z,51.83
2024-01-26T04:39:35.442Z,46.55
2024-01-26T04:44:37.835Z,47.53
2024-01-26T04:49:40.285Z,40.38
2024-01-26T04:54:42.634Z,45.00
2024-01-26T04:59:45.122Z,45.20
2024-01-26T05:04:47.511Z,44.58
2024-01-26T05:09:49.780Z,44.78
2024-01-26T05:14:52.060Z,47.80
2024-01-26T05:19:54.608Z,53.60
2024-01-26T05:24:57.055Z,47.80
2024-01-26T05:30:00.216Z,49.38
2024-01-26T05:35:02.718Z,48.47
2024-01-26T05:40:07.960Z,44.42
2024-01-26T05:45:10.767Z,46.45
2024-01-26T05:50:13.389Z,49.38
2024-01-26T05:55:16.218Z,45.22
2024-01-26T06:00:19.119Z,47.17
2024-01-26T06:05:21.797Z,47.35
2024-01-26T06:10:24.146Z,49.95
2024-01-26T06:15:26.499Z,43.58
2024-01-26T06:20:32.762Z,46.15
2024-01-26T06:25:35.377Z,46.60
2024-01-26T06:30:37.678Z,50.03
2024-01-26T06:35:40.081Z,45.10
2024-01-26T06:40:43.624Z,48.50
2024-01-26T06:45:45.951Z,51.33
2024-01-26T06:50:48.243Z,53.80
2024-01-26T06:55:53.697Z,52.42
2024-01-26T07:00:56.221Z,62.45
2024-01-26T07:05:58.649Z,58.15
2024-01-26T07:11:01.702Z,51.88
2024-01-26T07:16:22.863Z,49.58
2024-01-26T07:21:25.213Z,47.80
2024-01-26T07:26:27.518Z,44.10
2024-01-26T07:31:29.759Z,45.35
2024-01-26T07:36:32.835Z,48.38
2024-01-26T07:41:35.270Z,50.78
2024-01-26T07:46:40.026Z,51.65
2024-01-26T07:51:42.376Z,48.00
2024-01-26T07:56:44.741Z,49.58
2024-01-26T08:01:47.066Z,52.47
2024-01-26T08:06:49.434Z,51.67
2024-01-26T08:11:51.924Z,52.95
2024-01-26T08:16:57.621Z,55.28
2024-01-26T08:22:00.144Z,54.13
2024-01-26T08:27:03.026Z,50.58
2024-01-26T08:32:05.586Z,49.97
2024-01-26T08:37:08.001Z,47.75
2024-01-26T08:42:10.371Z,50.60
2024-01-26T08:47:12.808Z,53.00
2024-01-26T08:52:15.205Z,51.28
2024-01-26T08:57:17.509Z,52.45
2024-01-26T09:02:19.795Z,48.42
2024-01-26T09:07:24.330Z,46.67
2024-01-26T09:12:26.688Z,55.00
2024-01-26T09:17:29.162Z,52.25
2024-01-26T09:22:32.125Z,49.20
2024-01-26T09:27:52.857Z,57.70
2024-01-26T09:32:55.354Z,59.40
2024-01-26T09:37:57.859Z,60.00
2024-01-26T09:43:00.291Z,55.00
2024-01-26T09:48:06.613Z,60.05
2024-01-26T09:53:12.832Z,60.67
2024-01-26T09:58:16.317Z,63.05
2024-01-26T10:03:20.322Z,58.95
2024-01-26T10:08:23.177Z,57.08
2024-01-26T10:13:25.544Z,55.80
2024-01-26T10:18:43.736Z,57.85
2024-01-26T10:23:48.150Z,53.88
2024-01-26T10:28:51.975Z,55.33
2024-01-26T10:33:57.271Z,57.60
2024-01-26T10:39:02.293Z,54.55
2024-01-26T10:44:06.396Z,51.83
2024-01-26T10:49:11.291Z,50.15
2024-01-26T10:54:14.275Z,48.72
2024-01-26T10:59:18.676Z,43.60
2024-01-26T11:04:21.069Z,44.72
2024-01-26T11:09:24.266Z,40.70
2024-01-26T11:14:32.616Z,43.22
2024-01-26T11:19:35.009Z,45.80
2024-01-26T11:24:37.529Z,47.28
2024-01-26T11:29:40.580Z,48.45
2024-01-26T11:34:43.038Z,45.83
2024-01-26T11:39:45.576Z,40.88
2024-01-26T11:45:10.214Z,36.53
2024-01-26T11:50:13.197Z,41.55
2024-01-26T11:55:16.424Z,38.85
2024-01-26T12:00:20.362Z,33.67
2024-01-26T12:05:22.827Z,41.95
2024-01-26T12:10:26.263Z,36.35
2024-01-26T12:15:32.576Z,41.45
2024-01-26T12:20:35.864Z,37.60
2024-01-26T12:25:38.193Z,38.50
2024-01-26T12:30:40.828Z,34.15
2024-01-26T12:35:43.583Z,37.63
2024-01-26T12:40:46.462Z,36.63
2024-01-26T12:45:48.811Z,36.80
2024-01-26T12:50:51.390Z,37.67
2024-01-26T12:55:53.694Z,37.78
2024-01-26T13:00:56.629Z,38.92
2024-01-26T13:05:59.217Z,37.35
2024-01-26T13:11:01.561Z,38.67
2024-01-26T13:16:03.926Z,38.88
2024-01-26T13:21:06.493Z,41.58
2024-01-26T13:26:09.132Z,42.15
2024-01-26T13:31:11.849Z,40.42
2024-01-26T13:36:14.263Z,43.22
2024-01-26T13:41:17.672Z,69.85
2024-01-26T13:46:22.879Z,49.17
2024-01-26T13:51:25.294Z,42.78
2024-01-26T13:56:28.254Z,46.42
2024-01-26T14:01:30.655Z,40.35
2024-01-26T14:06:34.778Z,43.83
2024-01-26T14:11:38.001Z,48.38
2024-01-26T14:16:40.455Z,40.25
2024-01-26T14:21:45.527Z,40.53
2024-01-26T14:26:48.513Z,54.92
2024-01-26T14:31:53.512Z,39.53
2024-01-26T14:36:58.632Z,46.70
2024-01-26T14:42:00.968Z,35.30
2024-01-26T14:47:04.414Z,39.65
2024-01-26T14:52:07.019Z,36.83
2024-01-26T14:57:09.348Z,41.47
2024-01-26T15:02:12.143Z,44.38
2024-01-26T15:07:14.527Z,33.85
2024-01-26T15:12:16.823Z,40.72
2024-01-26T15:17:19.318Z,40.85
2024-01-26T15:22:21.585Z,36.55
2024-01-26T15:27:26.113Z,34.58
2024-01-26T15:32:30.555Z,35.38
2024-01-26T15:37:33.014Z,32.72
2024-01-26T15:42:35.402Z,33.58
2024-01-26T15:47:40.273Z,34.45
2024-01-26T15:52:46.426Z,33.03
2024-01-26T15:57:49.813Z,34.17
2024-01-26T16:02:52.310Z,33.60
2024-01-26T16:07:54.635Z,36.53
2024-01-26T16:12:56.870Z,48.08
2024-01-26T16:17:59.225Z,31.77
2024-01-26T16:23:01.753Z,32.97
2024-01-26T16:28:04.321Z,35.42
2024-01-26T16:33:06.858Z,31.17
2024-01-26T16:38:09.256Z,33.53
2024-01-26T16:43:12.824Z,30.73
2024-01-26T16:48:15.237Z,30.90
2024-01-26T16:53:17.597Z,29.58
2024-01-26T16:58:19.943Z,34.47
2024-01-26T17:03:22.528Z,31.90
2024-01-26T17:08:28.823Z,29.40
2024-01-26T17:13:31.322Z,29.50
2024-01-26T17:18:33.969Z,34.38
2024-01-26T17:23:37.450Z,49.60
2024-01-26T17:28:39.856Z,36.00
2024-01-26T17:33:42.278Z,38.80
2024-01-26T17:38:44.671Z,38.53
2024-01-26T17:43:47.018Z,41.22
2024-01-26T17:48:49.555Z,31.75
2024-01-26T17:53:51.909Z,39.28
2024-01-26T17:58:54.158Z,28.88
2024-01-26T18:03:56.670Z,33.55
2024-01-26T18:08:59.181Z,28.33
2024-01-26T18:14:02.191Z,27.25
2024-01-26T18:19:05.153Z,33.05
2024-01-26T18:24:07.698Z,28.15
2024-01-26T18:29:10.086Z,31.73
2024-01-26T18:34:12.489Z,28.75
2024-01-26T18:39:14.869Z,25.92
2024-01-26T18:44:17.534Z,26.10
2024-01-26T18:49:20.290Z,24.23
2024-01-26T18:54:23.410Z,30.15
2024-01-26T18:59:28.987Z,25.00
2024-01-26T19:04:33.187Z,25.33
2024-01-26T19:09:37.179Z,24.88
2024-01-26T19:14:40.987Z,22.75
2024-01-26T19:19:46.608Z,21.05
2024-01-26T19:24:49.345Z,24.98
2024-01-26T19:29:51.824Z,23.77
2024-01-26T19:34:54.150Z,26.52
2024-01-26T19:39:58.648Z,22.05
2024-01-26T19:45:01.084Z,26.05
2024-01-26T19:50:09.295Z,25.48
2024-01-26T19:55:12.487Z,30.67
2024-01-26T20:00:15.986Z,19.88
2024-01-26T20:05:18.792Z,22.27
2024-01-26T20:10:21.220Z,24.17
2024-01-26T20:15:23.489Z,23.85
2024-01-26T20:20:25.820Z,23.88
2024-01-26T20:25:28.403Z,22.70
2024-01-26T20:30:31.264Z,20.48
2024-01-26T20:35:33.890Z,18.13
2024-01-26T20:40:36.205Z,21.50
2024-01-26T20:45:41.890Z,17.38
2024-01-26T20:50:44.304Z,18.00
2024-01-26T20:55:46.666Z,18.55
2024-01-26T21:00:49.141Z,17.63
2024-01-26T21:05:51.791Z,16.45
2024-01-26T21:10:54.321Z,15.18
2024-01-26T21:15:57.005Z,18.50
2024-01-26T21:20:59.340Z,17.05
2024-01-26T21:26:03.226Z,21.25
2024-01-26T21:31:06.730Z,19.63
2024-01-26T21:36:09.568Z,19.08
2024-01-26T21:41:12.146Z,18.88
2024-01-26T21:46:14.362Z,17.00
2024-01-26T21:51:17.273Z,16.58
2024-01-26T21:56:20.176Z,16.50
2024-01-26T22:01:22.460Z,15.88
2024-01-26T22:06:25.521Z,15.95
2024-01-26T22:11:29.129Z,16.60
2024-01-26T22:16:32.454Z,17.55
2024-01-26T22:21:34.780Z,21.15
2024-01-26T22:26:37.061Z,20.35
2024-01-26T22:31:39.381Z,22.38
2024-01-26T22:36:42.215Z,20.17
2024-01-26T22:41:44.535Z,19.02
2024-01-26T22:46:46.884Z,20.63
2024-01-26T22:51:49.170Z,24.50
2024-01-26T22:56:51.402Z,20.20
2024-01-26T23:01:53.715Z,22.50
2024-01-26T23:06:56.078Z,21.48
2024-01-26T23:11:58.428Z,23.30
2024-01-26T23:17:00.739Z,23.60
2024-01-26T23:22:03.094Z,20.92
2024-01-26T23:27:05.774Z,22.65
2024-01-26T23:32:08.138Z,24.98
2024-01-26T23:37:11.211Z,22.63
2024-01-26T23:42:13.635Z,25.23
2024-01-26T23:47:15.892Z,24.38
2024-01-26T23:52:18.112Z,26.83
2024-01-26T23:57:20.584Z,26.83
